Site contains unofficial IBTrACS data. Visit the IBTrACS Website to access archived data.

1913 NOT_NAMED (1913022S13139)


IBTrACS version v04r00. Visit IBTrACS website for data access.
Please direct all questions to the IBTrACS Q and A forum

Storm track - Intensity - Wind Radii - Intensity Data - Source Data - All data

Summary Information

Storm ID 1913022S13139
Start Jan 21 23Z
Landfall Jan 23 06Z
End Jan 24 23Z
ATCF IDs
Track status Best track data.

Storm track plot

Map of storm track

Intensity plots

No Intensity information for this storm


Radial wind information

No radial wind information for this storm


Position and Intensity Table

BASIN ISO_TIME_________ NATURE LAT LON
degrees north degrees east
SP 1913-01-21 23:00:00 NR -13.20 139.20
SP 1913-01-22 00:00:00 NR -13.21 139.23
SP 03:00:00 NR -13.24 139.33
SP 06:00:00 NR -13.26 139.44
SP 09:00:00 NR -13.29 139.58
SP 11:00:00 NR -13.30 139.70
SP 12:00:00 NR -13.31 139.77
SP 15:00:00 NR -13.33 140.00
SP 18:00:00 NR -13.35 140.29
SP 21:00:00 NR -13.38 140.64
SP 23:00:00 NR -13.40 140.90
SP 1913-01-23 00:00:00 NR -13.41 141.04
SP 03:00:00 NR -13.45 141.50
SP 06:00:00 NR -13.50 142.01
SP 09:00:00 NR -13.56 142.54
SP 11:00:00 NR -13.60 142.90
SP 12:00:00 NR -13.62 143.06
SP 15:00:00 NR -13.67 143.53
SP 18:00:00 NR -13.73 144.02
SP 21:00:00 NR -13.82 144.58
SP 23:00:00 NR -13.90 145.00
SP 1913-01-24 00:00:00 NR -13.95 145.22
SP 03:00:00 NR -14.11 145.96
SP 06:00:00 NR -14.29 146.77
SP 09:00:00 NR -14.48 147.67
SP 11:00:00 NR -14.60 148.30
SP 12:00:00 NR -14.66 148.63
SP 15:00:00 NR -14.82 149.64
SP 18:00:00 NR -14.97 150.69
SP 21:00:00 NR -15.11 151.77
SP 23:00:00 NR -15.20 152.50

Source Information

Agency Information
USA
TOKYO
CMA
HKO
NEWDELHI
REUNION
BOM
NADI
WELLINGTON
DS824
TD9636 cons_worldwide_trop_cyclone_18710101-19891231-006:Line=711
TD9635
NEUMANN
MLC

All available IBTrACS Data

SEASON BASIN SUBBASIN ISO_TIME_________ NATURE LAT LON DIST2LAND LANDFALL IFLAG USA SSHS TD9636 LAT TD9636 LON TD9636 STAGE STORM SPEED STORM DIR
Year degrees north degrees east km km 1 degrees north degrees east kts degrees
1913 SP EA 1913-01-21 23:00:00 NR -13.20 139.20 257 257 __________O___ -1 -13.20 139.20 7 2 103
1913 SP EA 1913-01-22 00:00:00 NR -13.21 139.23 257 250 __________P___ -1 -13.21 139.23 7 2 106
1913 SP EA 03:00:00 NR -13.24 139.33 250 236 __________P___ -1 -13.24 139.33 7 2 104
1913 SP EA 06:00:00 NR -13.26 139.44 236 216 __________P___ -1 -13.26 139.44 7 3 101
1913 SP EA 09:00:00 NR -13.29 139.58 216 205 __________P___ -1 -13.29 139.58 7 3 99
1913 SP EA 11:00:00 NR -13.30 139.70 205 195 __________O___ -1 -13.30 139.70 7 4 97
1913 SP EA 12:00:00 NR -13.31 139.77 195 174 __________P___ -1 -13.31 139.77 7 4 95
1913 SP EA 15:00:00 NR -13.33 140.00 174 142 __________P___ -1 -13.33 140.00 7 5 95
1913 SP EA 18:00:00 NR -13.35 140.29 142 108 __________P___ -1 -13.35 140.29 7 6 95
1913 SP EA 21:00:00 NR -13.38 140.64 108 76 __________P___ -1 -13.38 140.64 7 7 95
1913 SP EA 23:00:00 NR -13.40 140.90 76 65 __________O___ -1 -13.40 140.90 7 8 95
1913 SP EA 1913-01-23 00:00:00 NR -13.41 141.04 65 10 __________P___ -1 -13.41 141.04 7 9 95
1913 SP EA 03:00:00 NR -13.45 141.50 10 0 __________P___ -1 -13.45 141.50 7 9 95
1913 SP EA 06:00:00 NR -13.50 142.01 0 0 __________P___ -1 -13.50 142.01 7 10 96
1913 SP EA 09:00:00 NR -13.56 142.54 0 0 __________P___ -1 -13.56 142.54 7 11 96
1913 SP EA 11:00:00 NR -13.60 142.90 0 0 __________O___ -1 -13.60 142.90 7 10 97
1913 SP EA 12:00:00 NR -13.62 143.06 0 0 __________P___ -1 -13.62 143.06 7 9 96
1913 SP EA 15:00:00 NR -13.67 143.53 0 0 __________P___ -1 -13.67 143.53 7 9 97
1913 SP EA 18:00:00 NR -13.73 144.02 46 46 __________P___ -1 -13.73 144.02 7 10 99
1913 SP EA 21:00:00 NR -13.82 144.58 57 49 __________P___ -1 -13.82 144.58 7 12 100
1913 SP EA 23:00:00 NR -13.90 145.00 70 70 __________O___ -1 -13.90 145.00 7 13 101
1913 SP EA 1913-01-24 00:00:00 NR -13.95 145.22 85 85 __________P___ -1 -13.95 145.22 7 14 103
1913 SP EA 03:00:00 NR -14.11 145.96 124 124 __________P___ -1 -14.11 145.96 7 15 103
1913 SP EA 06:00:00 NR -14.29 146.77 179 179 __________P___ -1 -14.29 146.77 7 17 103
1913 SP EA 09:00:00 NR -14.48 147.67 262 262 __________P___ -1 -14.48 147.67 7 18 102
1913 SP EA 11:00:00 NR -14.60 148.30 321 321 __________O___ -1 -14.60 148.30 7 19 101
1913 SP EA 12:00:00 NR -14.66 148.63 350 350 __________P___ -1 -14.66 148.63 7 20 100
1913 SP EA 15:00:00 NR -14.82 149.64 454 454 __________P___ -1 -14.82 149.64 7 20 99
1913 SP EA 18:00:00 NR -14.97 150.69 482 482 __________P___ -1 -14.97 150.69 7 21 98
1913 SP EA 21:00:00 NR -15.11 151.77 515 515 __________P___ -1 -15.11 151.77 7 21 97
1913 SP EA 23:00:00 NR -15.20 152.50 550 __________O___ -1 -15.20 152.50 7 21 97